Mct Breithorn — HBHC — position and weather

sailwx.info

Track history (hours):
 
Tides and Currents Weather Stations Pressure Air Temp Water Temp Dewpoint Dewpoint Depression Visibility Wind Speed Wind Dir Waves Ship Positions

Mct Breithorn

Last reported at 2014-Nov-23 08:33 UTC. Time now 2014-Dec-22 05:39 UTC.
Position N 37°34' W 000°58'.
Warning: this ship's position is 28 days out of date.

Length 165 m; draft 8.9 m.

Type: Ship (hazmat cat B). MMSI: 269848000.

Date/timePositionNaut miles runAvg speedWind from/ knotsBaromVisibWave heightAir tempDewpointWater temp
2014-Nov-23 08:33N 37°34' W 000°58'7 7.5
2014-Nov-23 07:34N 37°30' W 001°05'16 1.3
2014-Nov-22 19:11N 37°17' W 001°17'710.6
2014-Nov-22 18:33N 37°10' W 001°18'11 9.9
2014-Nov-22 17:30N 37°01' W 001°25'19310.7
2014-Nov-21 23:33N 36°04' W 005°13'10 9.4
2014-Nov-21 22:32N 36°08' W 005°24'3 0.3
2014-Nov-21 11:30N 36°11' W 005°24'0 0.0
2014-Nov-21 10:24N 36°11' W 005°24'0 0.0
2014-Nov-21 09:06N 36°11' W 005°24'0 0.0
2014-Nov-20 19:24N 36°11' W 005°24'1 1.1
2014-Nov-20 18:32N 36°10' W 005°25'1 0.5
2014-Nov-20 17:32N 36°10' W 005°26'0 0.0
2014-Nov-20 16:10N 36°10' W 005°26'0 0.0
2014-Nov-20 12:26N 36°10' W 005°26'0 0.0
2014-Nov-20 09:26N 36°10' W 005°26'0 0.0
2014-Nov-20 04:26N 36°10' W 005°26'0 0.0
2014-Nov-20 00:16N 36°10' W 005°26'2 0.4
2014-Nov-19 19:33N 36°08' W 005°25'1 0.4
2014-Nov-19 18:21N 36°07' W 005°25'0 0.0
2014-Nov-19 17:33N 36°07' W 005°25'0 0.0
2014-Nov-19 16:33N 36°07' W 005°25'0 0.0
2014-Nov-19 15:21N 36°07' W 005°25'0 0.0
2014-Nov-19 14:33N 36°07' W 005°25'0 0.0
2014-Nov-19 13:15N 36°07' W 005°25'0 0.0
2014-Nov-19 12:09N 36°07' W 005°25'0 0.0
2014-Nov-19 10:10N 36°07' W 005°25'2 3.1
2014-Nov-19 09:27N 36°09' W 005°24'1 0.0
2014-Nov-18 16:17N 36°10' W 005°23'3 0.1
2014-Nov-17 16:33N 36°06' W 005°24'7 6.6
2014-Nov-17 15:34N 36°04' W 005°16'  
2014-Nov-15 03:31N 38°35' E 008°38'1212.4
2014-Nov-15 02:33N 38°39' E 008°53'1110.8
2014-Nov-15 01:33N 38°46' E 009°03'1212.2
2014-Nov-15 00:33N 38°57' E 009°07'10 9.6
2014-Nov-14 23:33N 39°06' E 009°03'1 0.8
2014-Nov-14 22:33N 39°06' E 009°02'0 0.0
2014-Nov-14 21:33N 39°06' E 009°02'0 0.0
2014-Nov-14 20:33N 39°06' E 009°02'0 0.0
2014-Nov-14 19:33N 39°06' E 009°02'0 0.0
2014-Nov-14 18:33N 39°06' E 009°02'0 0.0
2014-Nov-14 17:33N 39°06' E 009°02'0 0.0
2014-Nov-14 16:33N 39°06' E 009°02'0 0.0
2014-Nov-14 15:33N 39°06' E 009°02'0 0.0
2014-Nov-14 14:33N 39°06' E 009°02'0 0.0
2014-Nov-14 12:33N 39°06' E 009°02'0 0.0
2014-Nov-14 11:33N 39°06' E 009°02'0 0.0
2014-Nov-14 10:33N 39°06' E 009°02'0 0.0
2014-Nov-14 09:33N 39°06' E 009°02'0 0.0
2014-Nov-14 08:33N 39°06' E 009°02'0 0.0
2014-Nov-14 07:33N 39°06' E 009°02'0 0.0
2014-Nov-14 06:33N 39°06' E 009°02'0 0.0
2014-Nov-14 05:33N 39°06' E 009°02'0 0.0
2014-Nov-14 04:33N 39°06' E 009°02'0 0.0
2014-Nov-14 03:33N 39°06' E 009°02'0 0.0
2014-Nov-14 02:33N 39°06' E 009°02'0 0.0
2014-Nov-14 01:33N 39°06' E 009°02'0 0.0
2014-Nov-14 00:33N 39°06' E 009°02'0 0.0
2014-Nov-13 23:33N 39°06' E 009°02'0 0.0
2014-Nov-13 22:33N 39°06' E 009°02'0 0.0
2014-Nov-13 21:33N 39°06' E 009°02'0 0.1
2014-Nov-13 20:33N 39°06' E 009°02'2 1.8
2014-Nov-13 19:31N 39°06' E 009°04'0 0.0
2014-Nov-13 18:31N 39°06' E 009°04'0 0.0
2014-Nov-13 17:31N 39°06' E 009°04'0 0.0
2014-Nov-13 16:31N 39°06' E 009°04'0 0.0
2014-Nov-13 15:31N 39°06' E 009°04'0 0.0
2014-Nov-13 14:31N 39°06' E 009°04'0 0.0
2014-Nov-13 13:31N 39°06' E 009°04'0 0.0
2014-Nov-13 12:31N 39°06' E 009°04'0 0.0
2014-Nov-13 11:31N 39°06' E 009°04'0 0.0
2014-Nov-13 10:31N 39°06' E 009°04'0 0.0
2014-Nov-13 09:31N 39°06' E 009°04'  
Track history (hours):
 
Tides and Currents Weather Stations Pressure Air Temp Water Temp Dewpoint Dewpoint Depression Visibility Wind Speed Wind Dir Waves Ship Positions

Mct Breithorn

Last reported at 2014-Nov-23 08:33 UTC. Time now 2014-Dec-22 05:39 UTC.
Position N 37°34' W 000°58'.
Warning: this ship's position is 28 days out of date.

Length 165 m; draft 8.9 m.

Type: Ship (hazmat cat B). MMSI: 269848000.

Date/timePositionNaut miles runAvg speedWind from/ knotsBaromVisibWave heightAir tempDewpointWater temp
2014-Nov-23 08:33N 37°34' W 000°58'7 7.5
2014-Nov-23 07:34N 37°30' W 001°05'16 1.3
2014-Nov-22 19:11N 37°17' W 001°17'710.6
2014-Nov-22 18:33N 37°10' W 001°18'11 9.9
2014-Nov-22 17:30N 37°01' W 001°25'19310.7
2014-Nov-21 23:33N 36°04' W 005°13'10 9.4
2014-Nov-21 22:32N 36°08' W 005°24'3 0.3
2014-Nov-21 11:30N 36°11' W 005°24'0 0.0
2014-Nov-21 10:24N 36°11' W 005°24'0 0.0
2014-Nov-21 09:06N 36°11' W 005°24'0 0.0
2014-Nov-20 19:24N 36°11' W 005°24'1 1.1
2014-Nov-20 18:32N 36°10' W 005°25'1 0.5
2014-Nov-20 17:32N 36°10' W 005°26'0 0.0
2014-Nov-20 16:10N 36°10' W 005°26'0 0.0
2014-Nov-20 12:26N 36°10' W 005°26'0 0.0
2014-Nov-20 09:26N 36°10' W 005°26'0 0.0
2014-Nov-20 04:26N 36°10' W 005°26'0 0.0
2014-Nov-20 00:16N 36°10' W 005°26'2 0.4
2014-Nov-19 19:33N 36°08' W 005°25'1 0.4
2014-Nov-19 18:21N 36°07' W 005°25'0 0.0
2014-Nov-19 17:33N 36°07' W 005°25'0 0.0
2014-Nov-19 16:33N 36°07' W 005°25'0 0.0
2014-Nov-19 15:21N 36°07' W 005°25'0 0.0
2014-Nov-19 14:33N 36°07' W 005°25'0 0.0
2014-Nov-19 13:15N 36°07' W 005°25'0 0.0
2014-Nov-19 12:09N 36°07' W 005°25'0 0.0
2014-Nov-19 10:10N 36°07' W 005°25'2 3.1
2014-Nov-19 09:27N 36°09' W 005°24'1 0.0
2014-Nov-18 16:17N 36°10' W 005°23'3 0.1
2014-Nov-17 16:33N 36°06' W 005°24'7 6.6
2014-Nov-17 15:34N 36°04' W 005°16'  
2014-Nov-15 03:31N 38°35' E 008°38'1212.4
2014-Nov-15 02:33N 38°39' E 008°53'1110.8
2014-Nov-15 01:33N 38°46' E 009°03'1212.2
2014-Nov-15 00:33N 38°57' E 009°07'10 9.6
2014-Nov-14 23:33N 39°06' E 009°03'1 0.8
2014-Nov-14 22:33N 39°06' E 009°02'0 0.0
2014-Nov-14 21:33N 39°06' E 009°02'0 0.0
2014-Nov-14 20:33N 39°06' E 009°02'0 0.0
2014-Nov-14 19:33N 39°06' E 009°02'0 0.0
2014-Nov-14 18:33N 39°06' E 009°02'0 0.0
2014-Nov-14 17:33N 39°06' E 009°02'0 0.0
2014-Nov-14 16:33N 39°06' E 009°02'0 0.0
2014-Nov-14 15:33N 39°06' E 009°02'0 0.0
2014-Nov-14 14:33N 39°06' E 009°02'0 0.0
2014-Nov-14 12:33N 39°06' E 009°02'0 0.0
2014-Nov-14 11:33N 39°06' E 009°02'0 0.0
2014-Nov-14 10:33N 39°06' E 009°02'0 0.0
2014-Nov-14 09:33N 39°06' E 009°02'0 0.0
2014-Nov-14 08:33N 39°06' E 009°02'0 0.0
2014-Nov-14 07:33N 39°06' E 009°02'0 0.0
2014-Nov-14 06:33N 39°06' E 009°02'0 0.0
2014-Nov-14 05:33N 39°06' E 009°02'0 0.0
2014-Nov-14 04:33N 39°06' E 009°02'0 0.0
2014-Nov-14 03:33N 39°06' E 009°02'0 0.0
2014-Nov-14 02:33N 39°06' E 009°02'0 0.0
2014-Nov-14 01:33N 39°06' E 009°02'0 0.0
2014-Nov-14 00:33N 39°06' E 009°02'0 0.0
2014-Nov-13 23:33N 39°06' E 009°02'0 0.0
2014-Nov-13 22:33N 39°06' E 009°02'0 0.0
2014-Nov-13 21:33N 39°06' E 009°02'0 0.1
2014-Nov-13 20:33N 39°06' E 009°02'2 1.8
2014-Nov-13 19:31N 39°06' E 009°04'0 0.0
2014-Nov-13 18:31N 39°06' E 009°04'0 0.0
2014-Nov-13 17:31N 39°06' E 009°04'0 0.0
2014-Nov-13 16:31N 39°06' E 009°04'0 0.0
2014-Nov-13 15:31N 39°06' E 009°04'0 0.0
2014-Nov-13 14:31N 39°06' E 009°04'0 0.0
2014-Nov-13 13:31N 39°06' E 009°04'0 0.0
2014-Nov-13 12:31N 39°06' E 009°04'0 0.0
2014-Nov-13 11:31N 39°06' E 009°04'0 0.0
2014-Nov-13 10:31N 39°06' E 009°04'0 0.0
2014-Nov-13 09:31N 39°06' E 009°04'  

Dump ship's entire track history